LWSK/SKP METAR and TAF weather

Enter ICAO airport designator
Station Type Date Time Source
LWSK METAR 2019/06/26 16:00 UTC NOAA

LWSK 261600Z 05008KT 9999 FEW050 31/15 Q1019 NOSIG


Station Type Date Time Source
LWSK Decoded METAR 2019/06/26 16:00 UTC NOAA

Skopje-Petrovec, Macedonia, The Republic of (LWSK) 41-58N 021-39E 239M
Jun 26, 2019 - 12:00 PM EDT / 2019.06.26 1600 UTC
Wind: from the NE (050 degrees) at 9 MPH (8 KT):0
Visibility: greater than 7 mile(s):0
Sky conditions: mostly clear
Temperature: 87 F (31 C)
Dew Point: 59 F (15 C)
Relative Humidity: 37%
Pressure (altimeter): 30.09 in. Hg (1019 hPa)
ob: LWSK 261600Z 05008KT 9999 FEW050 31/15 Q1019 NOSIG
cycle: 16

Station Type Date Time Source
LWSK TAF 2019/06/26 15:33 UTC NOAA

TAF LWSK 261430Z 2615/2715 03010KT 9999 SCT050 PROB40
TEMPO 2615/2619 VRB20KT SHRA FEW035CB BKN040
BECMG 2621/2623 VRB02KT CAVOK

Example: see airport list